createdAt,value
2022-10-10T00:01:37.544Z,8.40
2022-10-10T00:04:07.069Z,8.44
2022-10-10T00:06:35.269Z,8.44
2022-10-10T00:09:06.539Z,8.45
2022-10-10T00:11:34.556Z,8.40
2022-10-10T00:14:02.930Z,8.45
2022-10-10T00:16:31.223Z,8.44
2022-10-10T00:18:59.712Z,8.20
2022-10-10T00:21:27.726Z,8.13
2022-10-10T00:23:56.061Z,7.99
2022-10-10T00:26:25.694Z,7.98
2022-10-10T00:28:53.838Z,8.01
2022-10-10T00:31:22.131Z,7.97
2022-10-10T00:33:52.243Z,7.99
2022-10-10T00:36:21.549Z,7.94
2022-10-10T00:38:49.593Z,8.03
2022-10-10T00:41:17.812Z,7.96
2022-10-10T00:44:09.133Z,7.94
2022-10-10T00:46:37.234Z,7.95
2022-10-10T00:49:07.926Z,8.00
2022-10-10T00:51:36.043Z,8.05
2022-10-10T00:54:07.420Z,8.00
2022-10-10T00:56:41.320Z,7.93
2022-10-10T00:59:12.614Z,7.90
2022-10-10T01:01:41.745Z,7.86
2022-10-10T01:04:34.803Z,7.85
2022-10-10T01:07:06.080Z,7.75
2022-10-10T01:09:37.042Z,7.68
2022-10-10T01:12:17.963Z,7.80
2022-10-10T01:14:57.449Z,7.75
2022-10-10T01:17:30.685Z,7.80
2022-10-10T01:20:28.601Z,7.79
2022-10-10T01:23:20.918Z,7.64
2022-10-10T01:26:02.557Z,7.69
2022-10-10T01:28:41.334Z,7.68
2022-10-10T01:31:13.926Z,7.69
2022-10-10T01:33:54.811Z,7.64
2022-10-10T01:36:28.808Z,7.62
2022-10-10T01:39:02.993Z,7.64
2022-10-10T01:41:37.867Z,7.71
2022-10-10T01:44:07.319Z,7.69
2022-10-10T01:46:35.640Z,7.60
2022-10-10T01:49:04.169Z,7.64
2022-10-10T01:51:48.926Z,7.58
2022-10-10T01:54:34.094Z,7.57
2022-10-10T01:57:16.296Z,7.58
2022-10-10T02:00:00.527Z,7.62
2022-10-10T02:02:40.106Z,7.52
2022-10-10T02:05:16.145Z,7.68
2022-10-10T02:07:48.664Z,7.72
2022-10-10T02:10:22.436Z,7.74
2022-10-10T02:12:51.494Z,7.80
2022-10-10T02:15:24.005Z,7.77
2022-10-10T02:17:54.415Z,7.76
2022-10-10T02:20:26.087Z,7.79
2022-10-10T02:22:55.886Z,7.75
2022-10-10T02:25:29.303Z,7.75
2022-10-10T02:28:08.216Z,7.77
2022-10-10T02:30:44.212Z,7.73
2022-10-10T02:33:17.677Z,7.79
2022-10-10T02:35:50.514Z,7.69
2022-10-10T02:38:19.996Z,7.71
2022-10-10T02:40:49.400Z,7.68
2022-10-10T02:43:19.156Z,7.67
2022-10-10T02:45:48.824Z,7.61
2022-10-10T02:48:16.923Z,7.67
2022-10-10T02:50:45.668Z,7.57
2022-10-10T02:53:13.734Z,7.67
2022-10-10T02:55:41.783Z,7.56
2022-10-10T02:58:09.853Z,7.61
2022-10-10T03:00:37.828Z,7.63
2022-10-10T03:03:07.374Z,7.57
2022-10-10T03:05:35.304Z,7.48
2022-10-10T03:08:05.854Z,7.58
2022-10-10T03:10:36.139Z,7.65
2022-10-10T03:13:04.254Z,7.62
2022-10-10T03:15:32.318Z,7.58
2022-10-10T03:18:00.571Z,7.55
2022-10-10T03:20:30.045Z,7.55
2022-10-10T03:22:58.053Z,7.58
2022-10-10T03:25:26.180Z,7.49
2022-10-10T03:27:54.403Z,7.55
2022-10-10T03:30:22.598Z,7.47
2022-10-10T03:32:50.719Z,7.47
2022-10-10T03:35:19.067Z,7.46
2022-10-10T03:37:48.526Z,7.60
2022-10-10T03:40:16.716Z,7.55
2022-10-10T03:42:44.687Z,7.52
2022-10-10T03:45:12.795Z,7.54
2022-10-10T03:47:40.816Z,7.57
2022-10-10T03:50:09.788Z,7.53
2022-10-10T03:52:38.542Z,7.45
2022-10-10T03:55:09.194Z,7.52
2022-10-10T03:57:37.275Z,7.48
2022-10-10T04:00:06.031Z,7.49
2022-10-10T04:02:34.217Z,7.44
2022-10-10T04:05:03.505Z,7.50
2022-10-10T04:07:32.320Z,7.50
2022-10-10T04:10:00.435Z,7.51
2022-10-10T04:12:29.941Z,7.35
2022-10-10T04:14:57.961Z,7.40
2022-10-10T04:17:26.234Z,7.36
2022-10-10T04:19:54.293Z,7.28
2022-10-10T04:22:22.426Z,7.21
2022-10-10T04:24:50.491Z,7.34
2022-10-10T04:27:18.476Z,7.41
2022-10-10T04:29:47.819Z,7.14
2022-10-10T04:32:15.875Z,7.32
2022-10-10T04:34:44.022Z,7.35
2022-10-10T04:37:12.158Z,7.40
2022-10-10T04:39:40.307Z,7.41
2022-10-10T04:42:08.404Z,7.41
2022-10-10T04:44:36.814Z,7.29
2022-10-10T04:47:08.841Z,7.12
2022-10-10T04:49:36.918Z,7.41
2022-10-10T04:52:05.140Z,7.40
2022-10-10T04:54:33.243Z,7.21
2022-10-10T04:57:01.575Z,7.34
2022-10-10T04:59:29.593Z,7.34
2022-10-10T05:02:01.477Z,7.31
2022-10-10T05:04:31.544Z,7.28
2022-10-10T05:06:59.959Z,7.30
2022-10-10T05:09:28.172Z,7.32
2022-10-10T05:11:56.220Z,7.24
2022-10-10T05:14:24.196Z,7.24
2022-10-10T05:16:52.196Z,7.24
2022-10-10T05:19:20.203Z,6.97
2022-10-10T05:21:49.598Z,7.24
2022-10-10T05:24:17.812Z,7.27
2022-10-10T05:26:46.053Z,7.31
2022-10-10T05:29:14.125Z,7.30
2022-10-10T05:31:42.090Z,7.30
2022-10-10T05:34:13.853Z,7.32
2022-10-10T05:36:42.028Z,7.33
2022-10-10T05:39:11.591Z,7.35
2022-10-10T05:41:39.626Z,7.31
2022-10-10T05:44:07.832Z,7.34
2022-10-10T05:46:36.475Z,7.39
2022-10-10T05:49:04.887Z,7.44
2022-10-10T05:51:32.917Z,7.39
2022-10-10T05:54:01.312Z,7.45
2022-10-10T05:56:31.667Z,7.46
2022-10-10T05:58:59.841Z,7.53
2022-10-10T06:01:28.198Z,7.47
2022-10-10T06:03:56.910Z,7.52
2022-10-10T06:06:26.391Z,7.55
2022-10-10T06:08:54.670Z,7.58
2022-10-10T06:11:25.086Z,7.63
2022-10-10T06:13:55.275Z,7.68
2022-10-10T06:16:23.514Z,7.70
2022-10-10T06:18:51.793Z,7.71
2022-10-10T06:21:20.576Z,7.73
2022-10-10T06:23:49.544Z,7.79
2022-10-10T06:26:17.707Z,7.91
2022-10-10T06:28:45.962Z,7.90
2022-10-10T06:31:16.123Z,7.88
2022-10-10T06:33:46.243Z,7.95
2022-10-10T06:36:16.490Z,8.01
2022-10-10T06:38:46.308Z,7.97
2022-10-10T06:41:14.741Z,8.03
2022-10-10T06:43:43.333Z,8.04
2022-10-10T06:46:11.872Z,8.10
2022-10-10T06:48:41.464Z,8.18
2022-10-10T06:51:13.940Z,8.25
2022-10-10T06:53:42.935Z,8.44
2022-10-10T06:56:17.391Z,8.61
2022-10-10T06:58:45.780Z,8.70
2022-10-10T07:01:13.785Z,8.69
2022-10-10T07:03:43.181Z,8.77
2022-10-10T07:06:12.576Z,8.82
2022-10-10T07:08:41.542Z,8.89
2022-10-10T07:11:11.486Z,9.04
2022-10-10T07:13:39.941Z,9.11
2022-10-10T07:16:08.564Z,9.15
2022-10-10T07:18:37.729Z,9.23
2022-10-10T07:21:07.521Z,9.27
2022-10-10T07:23:36.979Z,9.35
2022-10-10T07:26:07.777Z,9.43
2022-10-10T07:28:36.056Z,9.50
2022-10-10T07:31:05.772Z,9.55
2022-10-10T07:33:34.897Z,9.64
2022-10-10T07:36:02.933Z,9.84
2022-10-10T07:38:32.529Z,9.75
2022-10-10T07:41:00.815Z,9.77
2022-10-10T07:43:28.834Z,9.83
2022-10-10T07:45:56.761Z,9.95
2022-10-10T07:48:24.936Z,10.00
2022-10-10T07:50:52.868Z,10.03
2022-10-10T07:53:20.843Z,10.11
2022-10-10T07:55:50.591Z,10.18
2022-10-10T07:58:18.770Z,10.24
2022-10-10T08:00:47.216Z,10.31
2022-10-10T08:03:15.178Z,10.42
2022-10-10T08:05:44.005Z,10.48
2022-10-10T08:08:12.980Z,10.60
2022-10-10T08:10:44.952Z,10.74
2022-10-10T08:13:14.559Z,10.81
2022-10-10T08:15:42.863Z,10.81
2022-10-10T08:18:10.819Z,10.89
2022-10-10T08:20:38.820Z,10.94
2022-10-10T08:23:06.893Z,10.99
2022-10-10T08:25:35.071Z,11.07
2022-10-10T08:28:03.577Z,11.20
2022-10-10T08:30:33.057Z,11.27
2022-10-10T08:33:01.584Z,11.37
2022-10-10T08:35:29.643Z,11.45
2022-10-10T08:37:57.692Z,11.53
2022-10-10T08:40:28.778Z,11.65
2022-10-10T08:42:59.706Z,11.70
2022-10-10T08:45:29.999Z,11.80
2022-10-10T08:48:02.884Z,11.87
2022-10-10T08:50:34.481Z,11.91
2022-10-10T08:53:09.621Z,12.06
2022-10-10T08:55:43.859Z,12.19
2022-10-10T08:58:17.676Z,12.31
2022-10-10T09:00:49.236Z,12.42
2022-10-10T09:03:28.330Z,12.57
2022-10-10T09:06:13.745Z,12.57
2022-10-10T09:08:50.307Z,12.63
2022-10-10T09:11:41.201Z,12.70
2022-10-10T09:14:20.549Z,12.80
2022-10-10T09:16:54.854Z,12.88
2022-10-10T09:19:40.328Z,12.98
2022-10-10T09:22:14.535Z,13.08
2022-10-10T09:24:46.706Z,13.18
2022-10-10T09:27:21.437Z,13.23
2022-10-10T09:29:55.033Z,13.26
2022-10-10T09:32:26.793Z,13.32
2022-10-10T09:35:02.737Z,13.47
2022-10-10T09:37:46.978Z,13.56
2022-10-10T09:40:24.017Z,13.57
2022-10-10T09:42:52.372Z,13.55
2022-10-10T09:45:24.480Z,13.61
2022-10-10T09:47:55.164Z,13.69
2022-10-10T09:50:25.304Z,13.78
2022-10-10T09:52:54.207Z,13.87
2022-10-10T09:55:28.289Z,13.82
2022-10-10T09:58:02.429Z,13.87
2022-10-10T10:00:35.950Z,13.96
2022-10-10T10:03:13.938Z,13.97
2022-10-10T10:05:47.169Z,14.01
2022-10-10T10:08:25.865Z,14.12
2022-10-10T10:10:58.134Z,14.16
2022-10-10T10:13:30.571Z,14.19
2022-10-10T10:16:03.039Z,14.37
2022-10-10T10:18:38.932Z,14.52
2022-10-10T10:21:29.510Z,14.61
2022-10-10T10:24:00.252Z,14.67
2022-10-10T10:26:33.159Z,14.71
2022-10-10T10:29:01.186Z,14.78
2022-10-10T10:31:43.926Z,14.86
2022-10-10T10:34:30.514Z,14.91
2022-10-10T10:37:14.585Z,14.94
2022-10-10T10:39:55.248Z,15.03
2022-10-10T10:42:40.713Z,15.07
2022-10-10T10:45:17.602Z,15.17
2022-10-10T10:47:55.034Z,15.16
2022-10-10T10:50:36.117Z,15.30
2022-10-10T10:53:16.321Z,15.36
2022-10-10T10:55:50.514Z,15.41
2022-10-10T10:59:05.817Z,15.44
2022-10-10T11:01:44.960Z,15.49
2022-10-10T11:05:22.443Z,15.64
2022-10-10T11:07:21.209Z,15.67
2022-10-10T11:09:56.671Z,15.76
2022-10-10T11:12:42.025Z,15.96
2022-10-10T11:15:15.764Z,16.06
2022-10-10T11:17:49.765Z,16.02
2022-10-10T11:20:24.294Z,15.92
2022-10-10T11:22:57.106Z,15.91
2022-10-10T11:25:29.936Z,16.00
2022-10-10T11:28:06.451Z,16.05
2022-10-10T11:30:40.650Z,16.07
2022-10-10T11:33:14.177Z,16.08
2022-10-10T11:35:47.344Z,16.08
2022-10-10T11:38:23.342Z,16.08
2022-10-10T11:40:57.898Z,16.07
2022-10-10T11:43:33.035Z,16.22
2022-10-10T11:46:09.646Z,16.18
2022-10-10T11:48:48.203Z,16.33
2022-10-10T11:51:37.082Z,16.31
2022-10-10T11:54:15.705Z,16.35
2022-10-10T11:56:47.600Z,16.33
2022-10-10T11:59:24.071Z,16.44
2022-10-10T12:01:56.192Z,16.39
2022-10-10T12:04:24.570Z,16.38
2022-10-10T12:06:58.987Z,16.35
2022-10-10T12:09:33.422Z,16.36
2022-10-10T12:12:07.196Z,16.34
2022-10-10T12:14:40.046Z,16.39
2022-10-10T12:17:21.433Z,16.35
2022-10-10T12:19:51.514Z,16.40
2022-10-10T12:22:25.882Z,16.43
2022-10-10T12:25:22.326Z,16.42
2022-10-10T12:28:07.214Z,16.48
2022-10-10T12:30:35.261Z,16.52
2022-10-10T12:33:03.321Z,16.64
2022-10-10T12:35:37.849Z,16.81
2022-10-10T12:38:20.899Z,16.86
2022-10-10T12:41:12.772Z,16.84
2022-10-10T12:44:12.705Z,16.89
2022-10-10T12:46:40.780Z,17.06
2022-10-10T12:49:21.181Z,17.12
2022-10-10T12:52:05.718Z,17.20
2022-10-10T12:54:39.482Z,17.28
2022-10-10T12:57:16.121Z,17.24
2022-10-10T12:59:46.134Z,17.27
2022-10-10T13:02:21.539Z,17.22
2022-10-10T13:04:51.745Z,17.35
2022-10-10T13:07:22.105Z,17.31
2022-10-10T13:09:54.075Z,17.40
2022-10-10T13:12:27.673Z,17.40
2022-10-10T13:14:57.873Z,17.48
2022-10-10T13:17:29.195Z,17.47
2022-10-10T13:19:59.366Z,17.71
2022-10-10T13:22:29.741Z,17.79
2022-10-10T13:24:59.256Z,17.71
2022-10-10T13:27:29.284Z,17.72
2022-10-10T13:29:59.027Z,17.85
2022-10-10T13:32:29.601Z,17.87
2022-10-10T13:35:00.551Z,17.94
2022-10-10T13:37:32.504Z,17.91
2022-10-10T13:40:02.239Z,17.91
2022-10-10T13:42:34.205Z,17.93
2022-10-10T13:45:29.511Z,17.92
2022-10-10T13:48:13.228Z,17.96
2022-10-10T13:50:56.694Z,18.04
2022-10-10T13:53:33.049Z,18.21
2022-10-10T13:56:06.314Z,18.33
2022-10-10T13:58:41.919Z,18.36
2022-10-10T14:01:31.664Z,18.32
2022-10-10T14:04:04.325Z,18.30
2022-10-10T14:06:32.844Z,18.19
2022-10-10T14:09:10.276Z,18.11
2022-10-10T14:11:38.558Z,18.08
2022-10-10T14:14:10.400Z,18.15
2022-10-10T14:16:43.426Z,18.21
2022-10-10T14:19:19.095Z,18.12
2022-10-10T14:21:47.100Z,18.19
2022-10-10T14:24:16.757Z,18.32
2022-10-10T14:26:44.828Z,18.40
2022-10-10T14:29:15.180Z,18.35
2022-10-10T14:31:47.045Z,18.38
2022-10-10T14:34:15.737Z,18.42
2022-10-10T14:36:47.659Z,18.42
2022-10-10T14:39:16.787Z,18.35
2022-10-10T14:41:45.545Z,18.45
2022-10-10T14:44:13.791Z,18.40
2022-10-10T14:46:42.401Z,18.17
2022-10-10T14:49:18.639Z,18.24
2022-10-10T14:51:47.123Z,18.16
2022-10-10T14:54:15.649Z,18.20
2022-10-10T14:57:08.408Z,18.22
2022-10-10T14:59:46.389Z,18.14
2022-10-10T15:02:16.916Z,18.20
2022-10-10T15:04:46.538Z,18.12
2022-10-10T15:07:15.495Z,18.14
2022-10-10T15:10:02.541Z,18.29
2022-10-10T15:12:32.728Z,18.20
2022-10-10T15:15:00.803Z,18.05
2022-10-10T15:17:30.462Z,18.06
2022-10-10T15:20:01.410Z,17.81
2022-10-10T15:22:30.667Z,17.70
2022-10-10T15:24:58.845Z,17.70
2022-10-10T15:27:28.463Z,17.68
2022-10-10T15:29:56.433Z,17.69
2022-10-10T15:32:24.403Z,17.64
2022-10-10T15:34:52.592Z,17.66
2022-10-10T15:37:25.003Z,17.64
2022-10-10T15:39:53.025Z,17.70
2022-10-10T15:42:23.008Z,17.63
2022-10-10T15:44:51.970Z,17.69
2022-10-10T15:47:20.654Z,17.62
2022-10-10T15:49:49.310Z,17.56
2022-10-10T15:52:17.373Z,17.51
2022-10-10T15:54:49.411Z,17.44
2022-10-10T15:57:19.138Z,17.36
2022-10-10T15:59:47.841Z,17.32
2022-10-10T16:02:15.887Z,17.26
2022-10-10T16:04:44.339Z,17.27
2022-10-10T16:07:25.790Z,17.27
2022-10-10T16:09:56.473Z,17.24
2022-10-10T16:12:24.581Z,17.26
2022-10-10T16:14:52.614Z,17.27
2022-10-10T16:17:23.399Z,17.32
2022-10-10T16:19:52.277Z,17.48
2022-10-10T16:22:20.400Z,17.18
2022-10-10T16:25:21.373Z,17.26
2022-10-10T16:27:38.771Z,17.29
2022-10-10T16:30:08.481Z,17.49
2022-10-10T16:32:42.039Z,17.17
2022-10-10T16:35:11.565Z,17.12
2022-10-10T16:37:39.750Z,17.14
2022-10-10T16:40:09.785Z,17.10
2022-10-10T16:42:41.607Z,17.12
2022-10-10T16:45:11.107Z,17.12
2022-10-10T16:47:39.393Z,17.00
2022-10-10T16:50:08.893Z,17.02
2022-10-10T16:52:38.439Z,17.01
2022-10-10T16:55:11.409Z,16.90
2022-10-10T16:57:41.819Z,16.47
2022-10-10T17:00:11.290Z,16.57
2022-10-10T17:02:42.495Z,16.44
2022-10-10T17:05:11.134Z,16.34
2022-10-10T17:07:39.167Z,16.07
2022-10-10T17:10:08.649Z,16.05
2022-10-10T17:12:36.811Z,16.17
2022-10-10T17:15:07.410Z,16.11
2022-10-10T17:17:36.150Z,16.11
2022-10-10T17:20:06.016Z,16.25
2022-10-10T17:22:34.085Z,15.85
2022-10-10T17:25:02.096Z,16.22
2022-10-10T17:27:30.126Z,15.83
2022-10-10T17:29:58.364Z,15.91
2022-10-10T17:32:27.909Z,15.86
2022-10-10T17:34:55.920Z,15.89
2022-10-10T17:37:23.887Z,15.55
2022-10-10T17:39:52.360Z,15.64
2022-10-10T17:42:20.723Z,15.57
2022-10-10T17:44:52.460Z,15.52
2022-10-10T17:47:23.578Z,15.50
2022-10-10T17:49:53.122Z,15.34
2022-10-10T17:52:21.677Z,15.36
2022-10-10T17:54:50.227Z,15.25
2022-10-10T17:57:18.564Z,15.22
2022-10-10T17:59:46.669Z,15.32
2022-10-10T18:02:17.105Z,15.28
2022-10-10T18:04:45.534Z,15.16
2022-10-10T18:07:16.057Z,15.32
2022-10-10T18:09:44.234Z,15.22
2022-10-10T18:12:13.121Z,15.38
2022-10-10T18:14:44.060Z,15.44
2022-10-10T18:17:12.499Z,15.38
2022-10-10T18:19:40.699Z,15.23
2022-10-10T18:22:08.858Z,15.16
2022-10-10T18:24:38.430Z,14.91
2022-10-10T18:27:06.473Z,15.27
2022-10-10T18:29:34.620Z,15.35
2022-10-10T18:32:02.758Z,15.27
2022-10-10T18:34:31.083Z,15.03
2022-10-10T18:36:59.075Z,15.04
2022-10-10T18:39:32.203Z,14.72
2022-10-10T18:42:02.428Z,15.06
2022-10-10T18:44:30.660Z,14.86
2022-10-10T18:46:58.696Z,15.03
2022-10-10T18:49:28.008Z,15.27
2022-10-10T18:51:56.532Z,15.14
2022-10-10T18:54:27.235Z,15.12
2022-10-10T18:56:55.359Z,14.81
2022-10-10T18:59:24.952Z,14.94
2022-10-10T19:01:53.129Z,14.64
2022-10-10T19:04:25.090Z,14.37
2022-10-10T19:06:57.447Z,14.28
2022-10-10T19:09:26.881Z,14.69
2022-10-10T19:11:55.327Z,14.53
2022-10-10T19:14:25.144Z,14.27
2022-10-10T19:16:53.822Z,14.25
2022-10-10T19:19:22.229Z,14.04
2022-10-10T19:21:50.679Z,14.26
2022-10-10T19:24:21.634Z,14.32
2022-10-10T19:26:56.759Z,14.48
2022-10-10T19:29:27.706Z,14.50
2022-10-10T19:31:56.043Z,14.50
2022-10-10T19:34:27.608Z,14.34
2022-10-10T19:36:56.530Z,14.41
2022-10-10T19:39:24.492Z,14.52
2022-10-10T19:41:52.476Z,14.50
2022-10-10T19:44:23.332Z,14.40
2022-10-10T19:46:52.681Z,14.05
2022-10-10T19:49:21.247Z,14.23
2022-10-10T19:51:49.243Z,14.01
2022-10-10T19:54:18.987Z,13.98
2022-10-10T19:56:47.059Z,14.02
2022-10-10T19:59:16.290Z,13.85
2022-10-10T20:01:44.841Z,13.87
2022-10-10T20:04:14.321Z,13.81
2022-10-10T20:06:43.610Z,13.70
2022-10-10T20:09:12.050Z,13.81
2022-10-10T20:11:40.588Z,13.75
2022-10-10T20:14:08.976Z,13.62
2022-10-10T20:16:37.345Z,13.63
2022-10-10T20:19:05.843Z,13.70
2022-10-10T20:21:37.525Z,13.39
2022-10-10T20:24:07.922Z,13.30
2022-10-10T20:26:36.948Z,13.42
2022-10-10T20:29:05.929Z,13.31
2022-10-10T20:31:37.452Z,13.11
2022-10-10T20:34:07.301Z,13.45
2022-10-10T20:36:37.232Z,13.43
2022-10-10T20:39:07.961Z,13.28
2022-10-10T20:41:37.470Z,13.11
2022-10-10T20:44:07.344Z,13.11
2022-10-10T20:46:39.470Z,13.06
2022-10-10T20:49:18.199Z,13.23
2022-10-10T20:51:50.272Z,13.14
2022-10-10T20:54:21.912Z,13.05
2022-10-10T20:56:50.713Z,12.82
2022-10-10T20:59:24.466Z,12.85
2022-10-10T21:01:53.238Z,12.86
2022-10-10T21:04:21.925Z,12.74
2022-10-10T21:06:54.836Z,12.97
2022-10-10T21:09:26.950Z,12.92
2022-10-10T21:11:56.277Z,12.77
2022-10-10T21:14:24.347Z,12.85
2022-10-10T21:16:54.171Z,12.72
2022-10-10T21:19:22.337Z,12.78
2022-10-10T21:21:50.827Z,12.59
2022-10-10T21:24:20.666Z,12.62
2022-10-10T21:26:50.846Z,12.69
2022-10-10T21:29:19.577Z,12.65
2022-10-10T21:31:47.816Z,12.59
2022-10-10T21:34:18.999Z,12.68
2022-10-10T21:36:47.363Z,12.65
2022-10-10T21:39:15.889Z,12.65
2022-10-10T21:41:45.619Z,12.72
2022-10-10T21:44:16.216Z,12.70
2022-10-10T21:46:44.598Z,12.64
2022-10-10T21:49:13.545Z,12.43
2022-10-10T21:51:45.577Z,12.70
2022-10-10T21:54:13.867Z,12.56
2022-10-10T21:56:41.892Z,12.44
2022-10-10T21:59:12.262Z,12.14
2022-10-10T22:01:40.159Z,12.35
2022-10-10T22:04:08.119Z,12.04
2022-10-10T22:06:36.152Z,12.17
2022-10-10T22:09:05.229Z,12.22
2022-10-10T22:11:34.794Z,12.11
2022-10-10T22:14:03.510Z,12.15
2022-10-10T22:16:33.587Z,12.13
2022-10-10T22:19:02.022Z,12.13
2022-10-10T22:21:32.210Z,12.04
2022-10-10T22:24:01.974Z,11.71
2022-10-10T22:26:30.271Z,11.91
2022-10-10T22:28:58.616Z,11.92
2022-10-10T22:31:26.788Z,11.88
2022-10-10T22:33:56.098Z,11.81
2022-10-10T22:36:24.128Z,11.81
2022-10-10T22:38:52.094Z,11.98
2022-10-10T22:41:20.355Z,11.98
2022-10-10T22:43:49.666Z,11.78
2022-10-10T22:46:17.845Z,11.77
2022-10-10T22:48:45.940Z,11.86
2022-10-10T22:51:17.822Z,11.72
2022-10-10T22:53:47.233Z,11.60
2022-10-10T22:56:17.183Z,11.83
2022-10-10T22:58:45.848Z,11.94
2022-10-10T23:01:17.205Z,11.62
2022-10-10T23:03:45.720Z,11.86
2022-10-10T23:06:15.748Z,11.75
2022-10-10T23:08:43.921Z,11.74
2022-10-10T23:11:11.844Z,11.57
2022-10-10T23:13:39.829Z,11.52
2022-10-10T23:16:08.876Z,11.69
2022-10-10T23:18:37.275Z,11.71
2022-10-10T23:21:07.018Z,11.60
2022-10-10T23:23:36.457Z,11.53
2022-10-10T23:26:07.050Z,11.49
2022-10-10T23:28:36.466Z,11.77
2022-10-10T23:31:06.511Z,11.57
2022-10-10T23:33:37.080Z,11.65
2022-10-10T23:36:07.888Z,11.71
2022-10-10T23:38:38.542Z,11.64
2022-10-10T23:41:06.965Z,11.65
2022-10-10T23:43:35.722Z,11.33
2022-10-10T23:46:04.242Z,11.45
2022-10-10T23:48:32.613Z,11.32
2022-10-10T23:51:00.607Z,11.07
2022-10-10T23:53:28.604Z,11.27
2022-10-10T23:56:00.308Z,11.32
2022-10-10T23:58:28.455Z,11.12
